Time;durP1;ratioP1;P1;durP2;ratioP2;P2;SDS_P1;SDS_P2;PMS_P1;PMS_P2;Temp;Humidity;BMP_temperature;BMP_pressure;BME280_temperature;BME280_humidity;BME280_pressure;Samples;Min_cycle;Max_cycle;Signal;HPM_P1;HPM_P2
2021/06/16 00:01:16;;;;;;;2.33;0.85;;;22.20;46.30;;;;;;2475218;54;21010;-86
2021/06/16 00:03:42;;;;;;;2.03;1.02;;;22.10;46.30;;;;;;2467443;54;21010;-86
2021/06/16 00:06:09;;;;;;;4.00;1.10;;;22.10;46.30;;;;;;2464924;54;20974;-87
2021/06/16 00:08:35;;;;;;;3.75;1.10;;;22.10;46.40;;;;;;2465025;54;20958;-86
2021/06/16 00:11:01;;;;;;;2.53;1.00;;;22.10;46.40;;;;;;2466317;54;20979;-87
2021/06/16 00:13:27;;;;;;;2.00;0.90;;;22.10;46.50;;;;;;2480203;54;20975;-86
2021/06/16 00:15:54;;;;;;;2.05;1.02;;;22.00;46.40;;;;;;2259080;55;21010;-87
2021/06/16 00:18:20;;;;;;;4.95;1.50;;;22.00;46.80;;;;;;2265173;55;21860;-86
2021/06/16 00:20:46;;;;;;;2.08;1.08;;;22.00;46.90;;;;;;2260426;55;22208;-86
2021/06/16 00:23:12;;;;;;;1.95;0.90;;;22.00;46.90;;;;;;2473632;54;21002;-87
2021/06/16 00:25:39;;;;;;;2.30;1.00;;;21.90;46.90;;;;;;2476345;54;20983;-87
2021/06/16 00:28:05;;;;;;;1.83;0.80;;;21.90;46.90;;;;;;2464799;54;20966;-86
2021/06/16 00:30:31;;;;;;;2.00;1.00;;;21.90;47.70;;;;;;2465218;54;22083;-86
2021/06/16 00:32:57;;;;;;;2.28;0.95;;;21.90;47.10;;;;;;2483626;54;21296;-86
2021/06/16 00:35:24;;;;;;;2.22;0.90;;;21.80;47.10;;;;;;2258497;55;21468;-87
2021/06/16 00:37:51;;;;;;;2.30;0.90;;;21.80;47.30;;;;;;2455882;54;20963;-88
2021/06/16 00:40:20;;;;;;;3.50;0.82;;;21.80;47.50;;;;;;2259283;55;21385;-89
2021/06/16 00:42:46;;;;;;;2.60;1.05;;;21.70;47.50;;;;;;2466984;54;21322;-86
2021/06/16 00:45:13;;;;;;;2.00;0.93;;;21.70;47.60;;;;;;2472125;54;20907;-87
2021/06/16 00:47:40;;;;;;;1.83;0.80;;;21.70;47.70;;;;;;2262069;55;21286;-88
2021/06/16 00:50:07;;;;;;;2.60;1.27;;;21.50;47.50;;;;;;2245121;55;21642;-88
2021/06/16 00:52:34;;;;;;;2.40;1.10;;;21.60;47.90;;;;;;2476260;54;20948;-87
2021/06/16 00:55:00;;;;;;;2.37;1.10;;;21.70;48.00;;;;;;2480643;54;21085;-86
2021/06/16 00:57:26;;;;;;;1.65;0.75;;;21.70;48.00;;;;;;2475643;54;21022;-87
2021/06/16 01:00:19;;;;;;;2.35;1.25;;;21.60;47.90;;;;;;2243000;55;20983;-87
2021/06/16 01:02:57;;;;;;;2.05;0.90;;;21.50;48.40;;;;;;2466542;54;20978;-87
2021/06/16 01:05:26;;;;;;;3.08;1.10;;;21.50;48.20;;;;;;2263396;55;22053;-88
2021/06/16 01:07:56;;;;;;;2.20;1.10;;;21.50;48.10;;;;;;2469120;54;21094;-88
2021/06/16 01:10:22;;;;;;;2.30;1.00;;;21.50;48.30;;;;;;2260616;55;21491;-88
2021/06/16 01:12:59;;;;;;;2.67;1.23;;;21.40;48.20;;;;;;2470150;54;20986;-90
2021/06/16 01:15:27;;;;;;;2.22;1.02;;;21.40;48.80;;;;;;2276157;55;20961;-88
2021/06/16 01:18:01;;;;;;;1.92;0.88;;;21.40;48.70;;;;;;2471820;54;21042;-87
2021/06/16 01:20:39;;;;;;;1.73;0.85;;;21.40;48.90;;;;;;2465354;54;20983;-87
2021/06/16 01:24:44;;;;;;;2.50;0.98;;;21.40;49.20;;;;;;2259061;55;20983;-88
2021/06/16 01:27:11;;;;;;;2.75;1.05;;;21.30;49.10;;;;;;2465958;54;20955;-88
2021/06/16 01:29:38;;;;;;;2.03;0.93;;;21.30;48.60;;;;;;2465013;54;20991;-87
2021/06/16 01:32:05;;;;;;;2.78;1.08;;;21.30;49.00;;;;;;2465726;54;21022;-89
2021/06/16 01:34:31;;;;;;;2.10;0.85;;;21.30;49.10;;;;;;2254932;55;20908;-88
2021/06/16 01:36:58;;;;;;;2.58;1.10;;;21.20;49.00;;;;;;2473383;54;21017;-89
2021/06/16 01:39:26;;;;;;;3.15;1.10;;;21.20;49.10;;;;;;2264179;55;21117;-90
2021/06/16 01:41:53;;;;;;;2.10;1.02;;;21.20;49.20;;;;;;2477970;54;21955;-90
2021/06/16 01:44:20;;;;;;;3.25;1.10;;;21.20;49.20;;;;;;2476650;54;21026;-90
2021/06/16 01:46:48;;;;;;;2.35;1.02;;;21.00;49.00;;;;;;2476959;54;21039;-87
2021/06/16 01:49:14;;;;;;;2.30;1.12;;;21.10;49.30;;;;;;2476198;54;20932;-89
2021/06/16 01:51:41;;;;;;;2.28;1.02;;;21.10;49.40;;;;;;2482538;54;20962;-89
2021/06/16 01:54:10;;;;;;;2.25;1.02;;;21.10;49.60;;;;;;2463291;54;22012;-89
2021/06/16 01:56:36;;;;;;;3.65;1.48;;;21.00;49.60;;;;;;2483359;54;20916;-88
2021/06/16 01:59:03;;;;;;;2.40;1.20;;;21.00;49.60;;;;;;2257648;55;21026;-87
2021/06/16 02:01:29;;;;;;;3.20;1.20;;;21.00;49.80;;;;;;2468009;53;20950;-88
2021/06/16 02:05:29;;;;;;;2.40;1.12;;;21.00;49.90;;;;;;2309385;54;24071;-65
2021/06/16 02:08:00;;;;;;;2.70;1.20;;;20.90;49.80;;;;;;2326399;53;21046;-65
2021/06/16 02:10:30;;;;;;;2.33;1.08;;;20.90;50.00;;;;;;2545138;53;21701;-66
2021/06/16 02:12:57;;;;;;;2.33;1.10;;;20.90;50.10;;;;;;2410167;54;20974;-67
2021/06/16 02:15:24;;;;;;;2.35;1.00;;;20.90;50.10;;;;;;2278668;54;20983;-65
2021/06/16 02:17:52;;;;;;;2.62;1.10;;;20.80;50.10;;;;;;2257082;55;21017;-66
2021/06/16 02:20:20;;;;;;;2.15;1.20;;;20.80;50.20;;;;;;2523137;53;20953;-68
2021/06/16 02:22:47;;;;;;;3.22;1.12;;;20.80;50.30;;;;;;2315039;53;20984;-64
2021/06/16 02:25:13;;;;;;;1.98;0.90;;;20.80;50.90;;;;;;2326235;54;21008;-67
2021/06/16 02:27:40;;;;;;;2.95;1.23;;;20.80;50.30;;;;;;2306173;54;21378;-64
2021/06/16 02:30:09;;;;;;;2.35;1.05;;;20.80;50.40;;;;;;2310050;53;20988;-66
2021/06/16 02:32:37;;;;;;;2.20;1.02;;;20.70;50.50;;;;;;2316431;54;21061;-66
2021/06/16 02:35:05;;;;;;;2.22;1.12;;;20.70;50.40;;;;;;2319015;53;21008;-67
2021/06/16 02:37:31;;;;;;;2.85;1.30;;;20.70;50.60;;;;;;2338630;53;21851;-67
2021/06/16 02:40:04;;;;;;;2.40;0.95;;;20.70;50.60;;;;;;2341629;53;20944;-65
2021/06/16 02:42:31;;;;;;;2.30;1.02;;;20.60;50.50;;;;;;2342249;53;21062;-65
2021/06/16 02:44:57;;;;;;;2.10;1.00;;;20.60;50.50;;;;;;2361242;53;20988;-66
2021/06/16 02:47:23;;;;;;;2.60;1.08;;;20.60;50.60;;;;;;2343292;53;21004;-65
2021/06/16 02:49:59;;;;;;;2.67;1.23;;;20.60;50.60;;;;;;2347272;53;20978;-65
2021/06/16 02:52:28;;;;;;;2.90;1.10;;;20.50;50.80;;;;;;2346817;53;20968;-65
2021/06/16 02:54:58;;;;;;;2.60;1.50;;;20.50;50.70;;;;;;2346652;53;20988;-65
2021/06/16 02:57:25;;;;;;;3.08;1.42;;;20.50;51.00;;;;;;2349092;53;21031;-64
2021/06/16 02:59:52;;;;;;;2.70;1.40;;;20.50;50.90;;;;;;2587265;53;20944;-68
2021/06/16 03:02:26;;;;;;;2.92;1.50;;;20.40;50.90;;;;;;2350245;53;20962;-65
2021/06/16 03:04:52;;;;;;;2.03;1.15;;;20.50;51.30;;;;;;2338072;53;21445;-64
2021/06/16 03:07:18;;;;;;;1.92;0.95;;;20.40;51.00;;;;;;2349888;53;21463;-65
2021/06/16 03:09:44;;;;;;;4.65;1.50;;;20.40;51.10;;;;;;2355966;53;20948;-67
2021/06/16 03:12:11;;;;;;;4.10;1.20;;;20.40;51.10;;;;;;2343827;54;21764;-70
2021/06/16 03:14:37;;;;;;;3.87;1.37;;;20.40;51.20;;;;;;2346370;53;20988;-65
2021/06/16 03:17:04;;;;;;;3.15;1.50;;;20.40;51.20;;;;;;2345279;53;20944;-65
2021/06/16 03:19:30;;;;;;;2.30;1.05;;;20.40;51.30;;;;;;2351873;53;21695;-65
2021/06/16 03:21:59;;;;;;;2.92;1.08;;;20.40;51.40;;;;;;2366925;53;21911;-65
2021/06/16 03:24:26;;;;;;;2.22;1.20;;;20.30;51.40;;;;;;2586813;53;20956;-65
2021/06/16 03:26:52;;;;;;;2.45;1.42;;;20.30;51.40;;;;;;2345818;53;20937;-65
2021/06/16 03:29:27;;;;;;;3.95;1.50;;;20.30;51.50;;;;;;2343509;53;21817;-65
2021/06/16 03:31:53;;;;;;;3.03;1.40;;;20.30;51.60;;;;;;2343986;53;21293;-65
2021/06/16 03:34:20;;;;;;;2.37;1.30;;;20.30;51.80;;;;;;2343473;54;21311;-65
2021/06/16 03:36:46;;;;;;;2.47;1.40;;;20.30;51.90;;;;;;2346439;53;20988;-66
2021/06/16 03:39:13;;;;;;;2.90;1.30;;;20.20;52.00;;;;;;2569101;52;20979;-65
2021/06/16 03:41:39;;;;;;;3.30;1.40;;;20.20;52.00;;;;;;2357039;53;21116;-66
2021/06/16 03:44:05;;;;;;;2.22;1.17;;;20.20;52.10;;;;;;2339462;54;20932;-66
2021/06/16 03:46:34;;;;;;;4.85;1.37;;;20.20;52.10;;;;;;2344505;53;20965;-65
2021/06/16 03:49:03;;;;;;;2.90;1.30;;;20.20;52.10;;;;;;2344456;53;20949;-64
2021/06/16 03:51:30;;;;;;;3.08;1.20;;;20.20;52.10;;;;;;2350658;53;21030;-66
2021/06/16 03:53:56;;;;;;;2.92;1.20;;;20.20;52.10;;;;;;2595720;52;21879;-66
2021/06/16 03:56:23;;;;;;;3.17;1.42;;;20.20;52.10;;;;;;2356973;53;21478;-66
2021/06/16 03:58:50;;;;;;;2.70;1.33;;;20.20;52.20;;;;;;2351454;53;21002;-65
2021/06/16 04:01:16;;;;;;;3.12;1.45;;;20.20;52.20;;;;;;2348650;53;20950;-67
2021/06/16 04:03:43;;;;;;;2.37;1.12;;;20.20;52.30;;;;;;2601114;52;20953;-65
2021/06/16 04:06:12;;;;;;;2.80;1.33;;;20.20;52.40;;;;;;2586306;52;20970;-65
2021/06/16 04:08:38;;;;;;;3.20;1.40;;;20.20;52.50;;;;;;2367684;53;21507;-65
2021/06/16 04:11:05;;;;;;;2.92;1.52;;;20.20;52.50;;;;;;2344850;53;20963;-64
2021/06/16 04:13:31;;;;;;;2.95;1.42;;;20.20;52.60;;;;;;2346798;53;21728;-67
2021/06/16 04:15:57;;;;;;;2.45;1.23;;;20.20;52.70;;;;;;2449883;52;20985;-64
2021/06/16 04:18:24;;;;;;;3.17;1.65;;;20.20;52.80;;;;;;2587270;52;21533;-64
2021/06/16 04:20:52;;;;;;;4.87;1.55;;;20.20;52.80;;;;;;2589159;52;20938;-67
2021/06/16 04:23:18;;;;;;;3.87;1.55;;;20.20;53.00;;;;;;2348880;53;21037;-67
2021/06/16 04:25:45;;;;;;;3.35;1.50;;;20.20;53.10;;;;;;2355188;53;20914;-65
2021/06/16 04:28:11;;;;;;;6.43;1.77;;;20.20;53.20;;;;;;2589395;52;21007;-64
2021/06/16 04:30:37;;;;;;;2.58;1.35;;;20.20;53.30;;;;;;2601169;52;21028;-65
2021/06/16 04:33:04;;;;;;;3.53;1.52;;;20.20;53.30;;;;;;2345370;53;21036;-65
2021/06/16 04:35:30;;;;;;;2.97;1.50;;;20.20;53.30;;;;;;2347787;53;20976;-65
2021/06/16 04:37:56;;;;;;;2.95;1.55;;;20.20;53.30;;;;;;2349145;53;21398;-65
2021/06/16 04:40:23;;;;;;;2.83;1.55;;;20.20;53.40;;;;;;2359754;53;21463;-65
2021/06/16 04:42:49;;;;;;;4.05;1.65;;;20.30;53.40;;;;;;2350201;53;21398;-67
2021/06/16 04:45:15;;;;;;;2.72;1.52;;;20.30;53.50;;;;;;2439965;53;21050;-67
2021/06/16 04:47:42;;;;;;;4.47;1.60;;;20.30;53.60;;;;;;2333619;53;21048;-67
2021/06/16 04:50:12;;;;;;;3.05;1.52;;;20.30;53.60;;;;;;2344595;53;21005;-68
2021/06/16 04:52:39;;;;;;;3.12;1.70;;;20.30;53.60;;;;;;2348650;53;20978;-68
2021/06/16 04:55:08;;;;;;;3.30;1.73;;;20.40;53.70;;;;;;2349912;53;21018;-67
2021/06/16 04:57:34;;;;;;;3.30;1.75;;;20.30;53.70;;;;;;2358965;53;20938;-65
2021/06/16 05:00:01;;;;;;;3.05;1.60;;;20.40;53.80;;;;;;2347848;53;21030;-66
2021/06/16 05:02:27;;;;;;;3.35;1.83;;;20.40;53.80;;;;;;2354336;53;20993;-65
2021/06/16 05:04:53;;;;;;;3.15;1.40;;;20.50;53.90;;;;;;2353701;53;21431;-65
2021/06/16 05:07:23;;;;;;;2.97;1.58;;;20.50;53.90;;;;;;2362858;53;20961;-65
2021/06/16 05:09:49;;;;;;;4.85;1.80;;;20.60;54.20;;;;;;2336121;53;20964;-67
2021/06/16 05:12:15;;;;;;;2.95;1.42;;;20.60;54.10;;;;;;2519413;53;21506;-66
2021/06/16 05:14:41;;;;;;;5.65;1.62;;;20.60;54.10;;;;;;2346319;53;21521;-66
2021/06/16 05:17:08;;;;;;;2.87;1.45;;;20.70;54.20;;;;;;2587806;53;20976;-68
2021/06/16 05:19:34;;;;;;;2.85;1.70;;;20.70;54.10;;;;;;2589320;52;20966;-65
2021/06/16 05:22:15;;;;;;;2.70;1.45;;;20.80;54.20;;;;;;2356965;53;21020;-65
2021/06/16 05:24:42;;;;;;;3.25;1.50;;;20.80;54.40;;;;;;2348535;53;20946;-68
2021/06/16 05:27:09;;;;;;;2.55;1.50;;;20.90;54.20;;;;;;2314933;53;21008;-67
2021/06/16 05:29:35;;;;;;;2.80;1.50;;;20.90;54.30;;;;;;2500056;53;20975;-65
2021/06/16 05:32:01;;;;;;;2.58;1.37;;;21.00;54.40;;;;;;2349259;53;21022;-66
2021/06/16 05:34:27;;;;;;;2.45;1.20;;;21.10;54.40;;;;;;2600431;52;21012;-65
2021/06/16 05:36:54;;;;;;;3.00;1.30;;;21.10;54.40;;;;;;2343840;53;20937;-65
2021/06/16 05:39:20;;;;;;;5.15;2.05;;;21.20;54.60;;;;;;2345031;53;20932;-65
2021/06/16 05:41:46;;;;;;;2.53;1.50;;;21.20;54.60;;;;;;2585431;53;20975;-66
2021/06/16 05:44:13;;;;;;;3.53;1.50;;;21.30;54.60;;;;;;2345563;53;21004;-66
2021/06/16 05:46:39;;;;;;;3.20;1.75;;;21.40;54.60;;;;;;2348781;52;21819;-66
2021/06/16 05:49:06;;;;;;;3.17;1.45;;;21.40;54.50;;;;;;2600066;52;20936;-69
2021/06/16 05:51:33;;;;;;;3.05;1.73;;;21.50;54.60;;;;;;2429046;53;20970;-66
2021/06/16 05:53:59;;;;;;;3.30;1.42;;;21.60;54.70;;;;;;2355765;53;20966;-69
2021/06/16 05:56:25;;;;;;;3.30;1.70;;;21.70;54.70;;;;;;2348935;53;20921;-66
2021/06/16 05:58:51;;;;;;;3.10;1.62;;;21.70;54.70;;;;;;2364743;53;21022;-66
2021/06/16 06:01:21;;;;;;;3.00;1.58;;;21.80;54.70;;;;;;2353941;53;21253;-65
2021/06/16 06:03:47;;;;;;;3.08;1.62;;;21.90;54.80;;;;;;2588305;52;20974;-67
2021/06/16 06:06:13;;;;;;;2.60;1.40;;;22.00;54.80;;;;;;2349545;53;20962;-66
2021/06/16 06:08:39;;;;;;;3.50;1.58;;;22.10;54.80;;;;;;2349283;53;21046;-66
2021/06/16 06:11:05;;;;;;;4.03;1.50;;;22.20;54.70;;;;;;2573868;52;21466;-66
2021/06/16 06:13:34;;;;;;;4.03;1.62;;;22.30;54.70;;;;;;2344661;53;21507;-66
2021/06/16 06:16:02;;;;;;;2.60;1.20;;;22.40;54.80;;;;;;2344461;53;20972;-66
2021/06/16 06:18:28;;;;;;;3.10;1.45;;;22.50;54.60;;;;;;2346601;53;20920;-66
2021/06/16 06:20:54;;;;;;;3.17;1.50;;;22.60;54.60;;;;;;2337506;53;20968;-66
2021/06/16 06:23:21;;;;;;;3.25;1.40;;;22.70;54.60;;;;;;2318674;53;21044;-65
2021/06/16 06:25:48;;;;;;;5.18;1.60;;;22.90;54.70;;;;;;2334652;53;21817;-66
2021/06/16 06:28:14;;;;;;;3.17;1.55;;;23.00;54.70;;;;;;2319000;53;21001;-66
2021/06/16 06:30:40;;;;;;;5.40;1.40;;;23.10;54.50;;;;;;2333378;53;20974;-66
2021/06/16 06:33:07;;;;;;;4.82;1.37;;;23.30;54.40;;;;;;2339491;53;20960;-66
2021/06/16 06:35:33;;;;;;;2.80;1.58;;;23.40;54.20;;;;;;2487950;53;20991;-66
2021/06/16 06:38:00;;;;;;;3.75;1.50;;;23.50;54.10;;;;;;2317018;53;21019;-66
2021/06/16 06:40:26;;;;;;;2.50;1.23;;;23.70;53.80;;;;;;2334513;53;20940;-67
2021/06/16 06:42:52;;;;;;;2.92;1.20;;;23.80;53.40;;;;;;2340386;53;20931;-68
2021/06/16 06:45:18;;;;;;;4.53;1.30;;;23.90;53.20;;;;;;2344294;53;21018;-66
2021/06/16 06:47:45;;;;;;;3.65;1.70;;;24.10;53.10;;;;;;2343273;53;20982;-68
2021/06/16 06:50:15;;;;;;;3.60;1.70;;;24.20;52.80;;;;;;2344812;53;21089;-66
2021/06/16 06:52:43;;;;;;;5.40;2.10;;;24.30;52.40;;;;;;2339922;53;20953;-66
2021/06/16 06:55:10;;;;;;;4.78;2.10;;;24.40;52.20;;;;;;2342669;53;20960;-66
2021/06/16 06:57:36;;;;;;;3.22;1.65;;;24.50;52.10;;;;;;2324900;53;21024;-66
2021/06/16 07:00:12;;;;;;;3.78;1.60;;;24.60;52.10;;;;;;2343583;53;20970;-66
2021/06/16 07:02:39;;;;;;;2.97;1.80;;;24.70;51.80;;;;;;2340240;53;21000;-66
2021/06/16 07:05:06;;;;;;;4.12;1.60;;;24.80;51.90;;;;;;2582673;53;20946;-65
2021/06/16 07:07:32;;;;;;;3.47;1.58;;;24.90;51.80;;;;;;2343723;53;20946;-68
2021/06/16 07:09:58;;;;;;;3.30;1.98;;;25.00;51.80;;;;;;2342822;53;20964;-66
2021/06/16 07:12:24;;;;;;;4.03;2.00;;;25.10;51.60;;;;;;2348017;53;21034;-66
2021/06/16 07:14:53;;;;;;;3.40;1.77;;;25.20;51.60;;;;;;2476723;53;21040;-67
2021/06/16 07:17:20;;;;;;;4.10;1.65;;;25.30;51.50;;;;;;2342395;53;21050;-66
2021/06/16 07:19:46;;;;;;;3.17;1.55;;;25.40;51.50;;;;;;2340898;53;20956;-67
2021/06/16 07:22:12;;;;;;;5.30;1.65;;;25.50;51.70;;;;;;2581902;53;22494;-66
2021/06/16 07:24:38;;;;;;;4.15;1.75;;;25.70;51.80;;;;;;2344213;53;21461;-67
2021/06/16 07:27:05;;;;;;;4.50;1.98;;;25.80;52.20;;;;;;2343983;53;20970;-70
2021/06/16 07:29:32;;;;;;;3.45;2.08;;;25.90;51.50;;;;;;2347079;53;21033;-67
2021/06/16 07:31:59;;;;;;;3.67;2.12;;;26.10;51.10;;;;;;2342687;54;20941;-67
2021/06/16 07:34:26;;;;;;;2.92;1.70;;;26.20;50.70;;;;;;2341315;53;20992;-68
2021/06/16 07:36:53;;;;;;;4.12;1.62;;;26.40;50.60;;;;;;2383746;53;21052;-66
2021/06/16 07:39:21;;;;;;;3.03;1.58;;;26.50;50.30;;;;;;2348910;53;21002;-67
2021/06/16 07:41:47;;;;;;;3.12;1.83;;;26.60;50.00;;;;;;2340476;53;21542;-69
2021/06/16 07:44:19;;;;;;;3.22;1.73;;;26.70;49.60;;;;;;2340454;53;21814;-67
2021/06/16 07:46:47;;;;;;;3.58;1.67;;;26.70;49.40;;;;;;2343759;53;20930;-68
2021/06/16 07:49:13;;;;;;;3.50;1.62;;;26.80;49.10;;;;;;2344287;53;21030;-67
2021/06/16 07:51:40;;;;;;;2.85;1.70;;;26.90;49.10;;;;;;2339690;54;20985;-67
2021/06/16 07:54:11;;;;;;;3.10;1.60;;;27.00;48.70;;;;;;2344729;53;21024;-66
2021/06/16 07:56:41;;;;;;;3.50;1.87;;;27.00;48.40;;;;;;2340815;53;21383;-68
2021/06/16 07:59:13;;;;;;;3.67;1.73;;;27.10;48.60;;;;;;2341491;53;20956;-67
2021/06/16 08:01:43;;;;;;;3.80;2.00;;;27.10;48.70;;;;;;2420507;53;20945;-67
2021/06/16 08:04:09;;;;;;;3.92;1.98;;;27.20;48.30;;;;;;2340198;53;21687;-68
2021/06/16 08:06:35;;;;;;;4.50;1.73;;;27.20;48.00;;;;;;2345011;53;21002;-67
2021/06/16 08:09:02;;;;;;;3.12;1.60;;;27.30;47.70;;;;;;2344287;53;21016;-70
2021/06/16 08:11:28;;;;;;;6.32;1.73;;;27.30;47.70;;;;;;2342459;53;21561;-68
2021/06/16 08:13:54;;;;;;;3.22;1.48;;;27.40;47.80;;;;;;2338554;53;21007;-67
2021/06/16 08:16:22;;;;;;;3.25;1.67;;;27.40;47.90;;;;;;2342051;54;20943;-64
2021/06/16 08:18:49;;;;;;;4.25;1.67;;;27.50;48.10;;;;;;2340835;53;21001;-67
2021/06/16 08:21:16;;;;;;;3.20;1.62;;;27.50;47.90;;;;;;2337329;53;20937;-64
2021/06/16 08:23:43;;;;;;;3.25;1.48;;;27.60;47.90;;;;;;2341858;53;21042;-65
2021/06/16 08:26:09;;;;;;;3.15;1.70;;;27.60;47.90;;;;;;2343873;53;20992;-65
2021/06/16 08:28:36;;;;;;;3.83;1.75;;;27.70;47.90;;;;;;2342434;53;21059;-64
2021/06/16 08:31:02;;;;;;;2.53;1.37;;;27.80;48.00;;;;;;2342738;53;20968;-66
2021/06/16 08:33:40;;;;;;;3.40;1.55;;;27.80;48.10;;;;;;2341492;53;20960;-67
2021/06/16 08:36:08;;;;;;;3.50;1.67;;;27.90;47.70;;;;;;2342816;53;20925;-65
2021/06/16 08:38:34;;;;;;;2.70;1.42;;;28.00;47.70;;;;;;2545788;53;21029;-64
2021/06/16 08:41:05;;;;;;;3.00;1.70;;;28.00;47.50;;;;;;2327659;53;20959;-69
2021/06/16 08:43:36;;;;;;;3.40;1.70;;;28.10;47.40;;;;;;2316811;53;21538;-67
2021/06/16 08:46:06;;;;;;;2.90;1.50;;;28.10;47.30;;;;;;2337863;53;21095;-69
2021/06/16 08:48:36;;;;;;;2.70;1.62;;;28.20;47.10;;;;;;2334900;53;21044;-65
2021/06/16 08:51:03;;;;;;;2.42;1.33;;;28.30;47.00;;;;;;2299721;54;22049;-64
2021/06/16 08:53:33;;;;;;;3.75;1.75;;;28.30;46.90;;;;;;2317773;53;21321;-69
2021/06/16 08:55:59;;;;;;;4.03;2.03;;;28.40;46.70;;;;;;2334543;53;21084;-66
2021/06/16 08:58:28;;;;;;;2.95;1.52;;;28.50;46.70;;;;;;2589140;52;21022;-64
2021/06/16 09:00:55;;;;;;;3.00;1.60;;;28.50;46.70;;;;;;2347269;53;20978;-66
2021/06/16 09:03:21;;;;;;;2.95;1.58;;;28.60;46.70;;;;;;2349669;53;20934;-65
2021/06/16 09:05:49;;;;;;;3.50;1.70;;;28.70;46.50;;;;;;2348720;53;20926;-65
2021/06/16 09:08:19;;;;;;;3.30;1.67;;;28.70;46.50;;;;;;2481505;53;21022;-65
2021/06/16 09:10:47;;;;;;;2.53;1.33;;;28.80;46.50;;;;;;2350431;53;20937;-67
2021/06/16 09:13:25;;;;;;;2.58;1.35;;;28.90;46.40;;;;;;2493461;53;21423;-66
2021/06/16 09:15:52;;;;;;;2.70;1.35;;;29.00;45.80;;;;;;2499479;53;20994;-64
2021/06/16 09:18:18;;;;;;;3.47;1.80;;;29.00;46.10;;;;;;2351331;53;20966;-65
2021/06/16 09:20:47;;;;;;;3.37;1.55;;;29.10;45.80;;;;;;2348316;53;20978;-65
2021/06/16 09:23:23;;;;;;;2.90;1.48;;;29.20;45.80;;;;;;2348114;53;20962;-64
2021/06/16 09:26:10;;;;;;;4.37;1.52;;;29.20;45.80;;;;;;2341438;53;20958;-65
2021/06/16 09:28:40;;;;;;;3.22;1.50;;;29.30;45.30;;;;;;2351091;53;21046;-67
2021/06/16 09:31:08;;;;;;;2.80;1.40;;;29.40;46.00;;;;;;2380968;53;21834;-65
2021/06/16 09:33:35;;;;;;;4.90;1.50;;;29.40;45.60;;;;;;2347585;53;20998;-65
2021/06/16 09:36:03;;;;;;;4.47;1.70;;;29.50;45.60;;;;;;2335683;53;21331;-67
2021/06/16 09:38:31;;;;;;;2.47;1.42;;;29.60;45.30;;;;;;2345648;53;20974;-68
2021/06/16 09:41:00;;;;;;;3.55;1.50;;;29.70;45.10;;;;;;2504335;53;20946;-65
2021/06/16 09:43:27;;;;;;;2.90;1.45;;;29.70;44.90;;;;;;2587752;52;20963;-67
2021/06/16 09:45:59;;;;;;;2.75;1.30;;;29.80;44.80;;;;;;2349246;53;20970;-65
2021/06/16 09:49:02;;;;;;;;;;;29.90;44.50;;;;;;2342076;57;21080;-65
2021/06/16 09:51:30;;;;;;;2.58;1.17;;;30.00;44.60;;;;;;2344956;57;20110;-66
2021/06/16 09:54:21;;;;;;;2.87;1.30;;;30.00;44.70;;;;;;2334799;53;20980;-65
2021/06/16 09:56:59;;;;;;;2.55;1.20;;;30.10;45.00;;;;;;2344825;53;20946;-65
2021/06/16 09:59:36;;;;;;;2.58;1.17;;;30.10;44.40;;;;;;2350956;53;20997;-65
2021/06/16 10:02:02;;;;;;;2.85;1.30;;;30.20;44.20;;;;;;2335829;53;21080;-65
2021/06/16 10:04:33;;;;;;;5.75;1.60;;;30.30;44.40;;;;;;2344328;53;20969;-64
2021/06/16 10:07:12;;;;;;;2.57;1.40;;;30.30;44.10;;;;;;2346005;53;20972;-68
2021/06/16 10:09:39;;;;;;;4.00;1.80;;;30.40;44.10;;;;;;2557196;53;21626;-65
2021/06/16 10:12:06;;;;;;;3.10;1.60;;;30.40;43.80;;;;;;2343121;53;20936;-67
2021/06/16 10:14:32;;;;;;;4.37;1.60;;;30.50;43.90;;;;;;2347265;53;20993;-65
2021/06/16 10:16:59;;;;;;;3.50;1.60;;;30.60;43.70;;;;;;2349288;53;20999;-65
2021/06/16 10:19:25;;;;;;;2.35;1.27;;;30.60;43.30;;;;;;2347028;53;21018;-67
2021/06/16 10:21:51;;;;;;;3.30;1.60;;;30.70;43.40;;;;;;2345874;53;20970;-65
2021/06/16 10:24:17;;;;;;;2.83;1.48;;;30.70;43.40;;;;;;2351498;53;20962;-65
2021/06/16 10:26:44;;;;;;;2.80;1.33;;;30.80;43.50;;;;;;2347241;53;20974;-65
2021/06/16 10:29:11;;;;;;;2.85;1.52;;;30.90;43.60;;;;;;2356764;53;20919;-64
2021/06/16 10:31:39;;;;;;;4.25;1.48;;;30.90;43.50;;;;;;2572487;53;20946;-65
2021/06/16 10:34:06;;;;;;;3.53;1.50;;;30.90;43.40;;;;;;2345802;53;21133;-64
2021/06/16 10:36:32;;;;;;;3.10;1.50;;;31.00;43.20;;;;;;2353323;53;21503;-68
2021/06/16 10:39:20;;;;;;;2.20;1.30;;;31.10;43.10;;;;;;2347722;53;21030;-65
2021/06/16 10:41:56;;;;;;;2.70;1.25;;;31.10;42.70;;;;;;2347525;53;21105;-63
2021/06/16 10:44:24;;;;;;;3.15;1.50;;;31.20;43.00;;;;;;2344439;53;20966;-64
2021/06/16 10:47:00;;;;;;;2.83;1.52;;;31.20;42.50;;;;;;2347352;53;20994;-64
2021/06/16 10:53:03;;;;;;;3.05;1.48;;;31.30;41.80;;;;;;2349747;53;20950;-66
2021/06/16 10:56:02;;;;;;;2.70;1.30;;;31.50;42.00;;;;;;2347525;53;21002;-67
2021/06/16 10:58:43;;;;;;;2.37;1.20;;;31.60;41.70;;;;;;2349288;53;20958;-68
2021/06/16 11:01:19;;;;;;;2.40;1.12;;;31.70;41.80;;;;;;2333843;53;21018;-67
2021/06/16 11:04:03;;;;;;;2.30;1.10;;;31.70;41.80;;;;;;2359753;53;20994;-70
2021/06/16 11:06:48;;;;;;;2.20;1.00;;;31.80;41.20;;;;;;2561297;53;21086;-69
2021/06/16 11:09:15;;;;;;;2.62;1.10;;;31.80;41.80;;;;;;2343723;53;20997;-67
2021/06/16 11:12:14;;;;;;;2.17;1.12;;;31.90;41.50;;;;;;2341880;53;21002;-67
2021/06/16 11:14:44;;;;;;;2.12;1.00;;;32.00;40.80;;;;;;2348472;53;21059;-65
2021/06/16 11:17:37;;;;;;;2.50;1.23;;;32.00;41.20;;;;;;2347384;53;21026;-64
2021/06/16 11:20:18;;;;;;;2.15;0.93;;;32.00;41.30;;;;;;2508663;53;20950;-64
2021/06/16 11:22:54;;;;;;;2.60;1.23;;;32.20;40.70;;;;;;2345023;53;20961;-68
2021/06/16 11:25:27;;;;;;;2.70;1.30;;;32.20;40.40;;;;;;2346741;53;21043;-69
2021/06/16 11:28:10;;;;;;;2.78;1.40;;;32.20;40.40;;;;;;2345157;53;21942;-67
2021/06/16 11:32:34;;;;;;;2.20;1.10;;;32.30;40.20;;;;;;2349668;53;20994;-69
2021/06/16 11:35:01;;;;;;;2.35;0.88;;;32.30;39.70;;;;;;2348776;53;21030;-67
2021/06/16 11:38:32;;;;;;;2.30;0.95;;;32.50;40.10;;;;;;2348327;53;21479;-69
2021/06/16 11:41:32;;;;;;;3.37;1.37;;;32.60;39.60;;;;;;2348370;53;20938;-65
2021/06/16 11:44:11;;;;;;;1.73;0.90;;;32.60;39.40;;;;;;2343520;53;20962;-64
2021/06/16 11:46:39;;;;;;;2.22;1.12;;;32.70;39.60;;;;;;2348437;53;21518;-67
2021/06/16 11:49:38;;;;;;;2.70;1.30;;;32.70;39.40;;;;;;2575153;53;21659;-66
2021/06/16 11:52:05;;;;;;;2.40;1.10;;;32.80;39.10;;;;;;2348637;53;21432;-67
2021/06/16 11:54:40;;;;;;;3.08;1.15;;;32.80;39.30;;;;;;2347366;53;20986;-70
2021/06/16 11:57:10;;;;;;;3.87;1.17;;;32.90;39.30;;;;;;2346284;53;21446;-67
2021/06/16 11:59:43;;;;;;;5.85;1.05;;;32.90;38.70;;;;;;2352245;53;21042;-64
2021/06/16 12:02:28;;;;;;;3.00;1.10;;;33.00;38.50;;;;;;2325662;53;21082;-66
2021/06/16 12:05:09;;;;;;;3.87;1.27;;;33.10;38.20;;;;;;2345408;53;20926;-68
2021/06/16 12:07:50;;;;;;;4.43;1.40;;;33.10;38.20;;;;;;2345858;53;21503;-66
2021/06/16 12:10:25;;;;;;;2.17;1.02;;;33.20;38.50;;;;;;2348447;53;20994;-66
2021/06/16 12:12:55;;;;;;;4.07;1.05;;;33.30;38.10;;;;;;2341894;53;21783;-67
2021/06/16 12:15:35;;;;;;;3.70;1.25;;;33.30;38.20;;;;;;2344723;53;20970;-71
2021/06/16 12:18:02;;;;;;;3.37;1.10;;;33.40;37.60;;;;;;2396475;53;21138;-66
2021/06/16 12:20:51;;;;;;;3.70;1.20;;;33.40;37.90;;;;;;2348258;53;20986;-66
2021/06/16 12:23:33;;;;;;;4.03;1.10;;;33.50;37.50;;;;;;2335433;53;21049;-68
2021/06/16 12:26:20;;;;;;;2.22;1.05;;;33.60;37.20;;;;;;2346645;53;20954;-66
2021/06/16 12:28:48;;;;;;;3.20;0.90;;;33.70;37.40;;;;;;2348169;53;21249;-66
2021/06/16 12:31:26;;;;;;;3.12;1.27;;;33.70;38.00;;;;;;2334527;53;22185;-67
2021/06/16 12:34:04;;;;;;;2.25;1.10;;;33.80;37.00;;;;;;2344955;53;21038;-66
2021/06/16 12:36:34;;;;;;;1.95;1.00;;;33.80;36.90;;;;;;2348595;53;20961;-66
2021/06/16 12:39:14;;;;;;;2.30;1.05;;;33.90;36.60;;;;;;2576572;52;20983;-66
2021/06/16 12:41:50;;;;;;;2.92;1.15;;;33.90;35.90;;;;;;2348046;53;21802;-65
2021/06/16 12:44:44;;;;;;;2.67;1.10;;;34.10;36.10;;;;;;2324876;53;21005;-64
2021/06/16 12:47:12;;;;;;;3.28;1.08;;;34.10;35.40;;;;;;2318427;53;20993;-64
2021/06/16 12:49:59;;;;;;;2.83;1.17;;;34.10;36.00;;;;;;2541791;53;21776;-67
2021/06/16 12:52:34;;;;;;;2.95;1.20;;;34.20;35.70;;;;;;2311244;53;20997;-68
2021/06/16 12:55:14;;;;;;;2.97;1.30;;;34.30;35.60;;;;;;2558462;53;21520;-64
2021/06/16 12:57:54;;;;;;;3.00;1.10;;;34.30;35.70;;;;;;2339964;53;21488;-67
2021/06/16 13:00:29;;;;;;;2.30;1.15;;;34.30;35.40;;;;;;2343544;53;21052;-68
2021/06/16 13:02:55;;;;;;;2.47;0.93;;;34.40;35.30;;;;;;2344637;53;21032;-64
2021/06/16 13:05:28;;;;;;;1.92;0.90;;;34.40;35.20;;;;;;2340196;53;20976;-66
2021/06/16 13:08:00;;;;;;;2.60;1.10;;;34.50;34.80;;;;;;2312121;54;21512;-64
2021/06/16 13:11:06;;;;;;;2.90;1.00;;;34.50;34.90;;;;;;2301288;54;21039;-69